<?xml version="1.0" encoding="UTF-8" standalone="no" ?>
<gpx xmlns="http://www.topografix.com/GPX/1/1" xmlns:xsi="http://www.w3.org/2001/XMLSchema-instance" xsi:schemaLocation="http://www.topografix.com/GPX/1/1 http://www.topografix.com/GPX/1/1/gpx.xsd" version="1.1" creator="VisuGPX - https://www.visugpx.com">
  <metadata>
    <name>10822265-St Fulgent 01 - St André Goule d'Oie</name>
  </metadata>
  <trk>
    <name><![CDATA[10822265-St Fulgent 01 - St André Goule d'Oie]]></name>
    <trkseg>
      <trkpt lat="46.85112" lon="-1.17754">
        <ele>78</ele>
        <time>2022-03-10T14:40:33Z</time>
      </trkpt>
      <trkpt lat="46.85099" lon="-1.17765">
        <ele>78</ele>
        <time>2022-03-10T14:40:53Z</time>
      </trkpt>
      <trkpt lat="46.85096" lon="-1.17752">
        <ele>78</ele>
        <time>2022-03-10T14:41:06Z</time>
      </trkpt>
      <trkpt lat="46.85081" lon="-1.17755">
        <ele>77</ele>
        <time>2022-03-10T14:41:26Z</time>
      </trkpt>
      <trkpt lat="46.85056" lon="-1.17761">
        <ele>76</ele>
        <time>2022-03-10T14:42:00Z</time>
      </trkpt>
      <trkpt lat="46.85052" lon="-1.17743">
        <ele>76</ele>
        <time>2022-03-10T14:42:17Z</time>
      </trkpt>
      <trkpt lat="46.85054" lon="-1.17725">
        <ele>76</ele>
        <time>2022-03-10T14:42:33Z</time>
      </trkpt>
      <trkpt lat="46.85052" lon="-1.1771">
        <ele>76</ele>
        <time>2022-03-10T14:42:47Z</time>
      </trkpt>
      <trkpt lat="46.8505" lon="-1.17699">
        <ele>76</ele>
        <time>2022-03-10T14:42:58Z</time>
      </trkpt>
      <trkpt lat="46.85049" lon="-1.17685">
        <ele>76</ele>
        <time>2022-03-10T14:43:11Z</time>
      </trkpt>
      <trkpt lat="46.85054" lon="-1.17662">
        <ele>76</ele>
        <time>2022-03-10T14:43:33Z</time>
      </trkpt>
      <trkpt lat="46.85061" lon="-1.17647">
        <ele>77</ele>
        <time>2022-03-10T14:43:49Z</time>
      </trkpt>
      <trkpt lat="46.85066" lon="-1.17637">
        <ele>77</ele>
        <time>2022-03-10T14:44:01Z</time>
      </trkpt>
      <trkpt lat="46.8506" lon="-1.17614">
        <ele>77</ele>
        <time>2022-03-10T14:44:23Z</time>
      </trkpt>
      <trkpt lat="46.8505" lon="-1.17567">
        <ele>77</ele>
        <time>2022-03-10T14:45:08Z</time>
      </trkpt>
      <trkpt lat="46.85043" lon="-1.17535">
        <ele>77</ele>
        <time>2022-03-10T14:45:39Z</time>
      </trkpt>
      <trkpt lat="46.85032" lon="-1.1748">
        <ele>76</ele>
        <time>2022-03-10T14:46:31Z</time>
      </trkpt>
      <trkpt lat="46.85032" lon="-1.17404">
        <ele>76</ele>
        <time>2022-03-10T14:47:40Z</time>
      </trkpt>
      <trkpt lat="46.85028" lon="-1.17377">
        <ele>76</ele>
        <time>2022-03-10T14:48:06Z</time>
      </trkpt>
      <trkpt lat="46.85022" lon="-1.17357">
        <ele>77</ele>
        <time>2022-03-10T14:48:25Z</time>
      </trkpt>
      <trkpt lat="46.85013" lon="-1.17343">
        <ele>77</ele>
        <time>2022-03-10T14:48:43Z</time>
      </trkpt>
      <trkpt lat="46.85001" lon="-1.17322">
        <ele>78</ele>
        <time>2022-03-10T14:49:08Z</time>
      </trkpt>
      <trkpt lat="46.84989" lon="-1.17299">
        <ele>79</ele>
        <time>2022-03-10T14:49:34Z</time>
      </trkpt>
      <trkpt lat="46.8498" lon="-1.17277">
        <ele>79</ele>
        <time>2022-03-10T14:49:58Z</time>
      </trkpt>
      <trkpt lat="46.84967" lon="-1.1725">
        <ele>79</ele>
        <time>2022-03-10T14:50:28Z</time>
      </trkpt>
      <trkpt lat="46.84953" lon="-1.17217">
        <ele>80</ele>
        <time>2022-03-10T14:51:03Z</time>
      </trkpt>
      <trkpt lat="46.84943" lon="-1.1719">
        <ele>80</ele>
        <time>2022-03-10T14:51:31Z</time>
      </trkpt>
      <trkpt lat="46.84936" lon="-1.17175">
        <ele>80</ele>
        <time>2022-03-10T14:51:48Z</time>
      </trkpt>
      <trkpt lat="46.84929" lon="-1.17157">
        <ele>80</ele>
        <time>2022-03-10T14:52:07Z</time>
      </trkpt>
      <trkpt lat="46.84922" lon="-1.17142">
        <ele>80</ele>
        <time>2022-03-10T14:52:23Z</time>
      </trkpt>
      <trkpt lat="46.84912" lon="-1.1712">
        <ele>81</ele>
        <time>2022-03-10T14:52:47Z</time>
      </trkpt>
      <trkpt lat="46.84905" lon="-1.17099">
        <ele>81</ele>
        <time>2022-03-10T14:53:09Z</time>
      </trkpt>
      <trkpt lat="46.84896" lon="-1.17075">
        <ele>81</ele>
        <time>2022-03-10T14:53:34Z</time>
      </trkpt>
      <trkpt lat="46.84888" lon="-1.17062">
        <ele>81</ele>
        <time>2022-03-10T14:53:50Z</time>
      </trkpt>
      <trkpt lat="46.84882" lon="-1.17044">
        <ele>81</ele>
        <time>2022-03-10T14:54:08Z</time>
      </trkpt>
      <trkpt lat="46.84872" lon="-1.17043">
        <ele>81</ele>
        <time>2022-03-10T14:54:21Z</time>
      </trkpt>
      <trkpt lat="46.84857" lon="-1.16994">
        <ele>82</ele>
        <time>2022-03-10T14:55:10Z</time>
      </trkpt>
      <trkpt lat="46.84843" lon="-1.1696">
        <ele>82</ele>
        <time>2022-03-10T14:55:47Z</time>
      </trkpt>
      <trkpt lat="46.84824" lon="-1.16906">
        <ele>81</ele>
        <time>2022-03-10T14:56:42Z</time>
      </trkpt>
      <trkpt lat="46.8481" lon="-1.16852">
        <ele>81</ele>
        <time>2022-03-10T14:57:35Z</time>
      </trkpt>
      <trkpt lat="46.848" lon="-1.16819">
        <ele>81</ele>
        <time>2022-03-10T14:58:08Z</time>
      </trkpt>
      <trkpt lat="46.84795" lon="-1.16783">
        <ele>81</ele>
        <time>2022-03-10T14:58:41Z</time>
      </trkpt>
      <trkpt lat="46.84788" lon="-1.16755">
        <ele>81</ele>
        <time>2022-03-10T14:59:08Z</time>
      </trkpt>
      <trkpt lat="46.8478" lon="-1.16737">
        <ele>80</ele>
        <time>2022-03-10T14:59:28Z</time>
      </trkpt>
      <trkpt lat="46.84756" lon="-1.16736">
        <ele>81</ele>
        <time>2022-03-10T15:00:00Z</time>
      </trkpt>
      <trkpt lat="46.84729" lon="-1.16713">
        <ele>80</ele>
        <time>2022-03-10T15:00:42Z</time>
      </trkpt>
      <trkpt lat="46.84701" lon="-1.16697">
        <ele>80</ele>
        <time>2022-03-10T15:01:22Z</time>
      </trkpt>
      <trkpt lat="46.84654" lon="-1.16707">
        <ele>80</ele>
        <time>2022-03-10T15:02:25Z</time>
      </trkpt>
      <trkpt lat="46.84619" lon="-1.16737">
        <ele>79</ele>
        <time>2022-03-10T15:03:19Z</time>
      </trkpt>
      <trkpt lat="46.84566" lon="-1.16785">
        <ele>77</ele>
        <time>2022-03-10T15:04:43Z</time>
      </trkpt>
      <trkpt lat="46.84541" lon="-1.16809">
        <ele>76</ele>
        <time>2022-03-10T15:05:23Z</time>
      </trkpt>
      <trkpt lat="46.84511" lon="-1.1684">
        <ele>76</ele>
        <time>2022-03-10T15:06:12Z</time>
      </trkpt>
      <trkpt lat="46.84495" lon="-1.16887">
        <ele>75</ele>
        <time>2022-03-10T15:06:59Z</time>
      </trkpt>
      <trkpt lat="46.8448" lon="-1.16938">
        <ele>74</ele>
        <time>2022-03-10T15:07:50Z</time>
      </trkpt>
      <trkpt lat="46.84469" lon="-1.16975">
        <ele>73</ele>
        <time>2022-03-10T15:08:27Z</time>
      </trkpt>
      <trkpt lat="46.8446" lon="-1.17026">
        <ele>71</ele>
        <time>2022-03-10T15:09:15Z</time>
      </trkpt>
      <trkpt lat="46.84465" lon="-1.17061">
        <ele>71</ele>
        <time>2022-03-10T15:09:48Z</time>
      </trkpt>
      <trkpt lat="46.84478" lon="-1.17091">
        <ele>71</ele>
        <time>2022-03-10T15:10:20Z</time>
      </trkpt>
      <trkpt lat="46.84494" lon="-1.17129">
        <ele>71</ele>
        <time>2022-03-10T15:11:01Z</time>
      </trkpt>
      <trkpt lat="46.84498" lon="-1.17138">
        <ele>71</ele>
        <time>2022-03-10T15:11:11Z</time>
      </trkpt>
      <trkpt lat="46.84498" lon="-1.17149">
        <ele>71</ele>
        <time>2022-03-10T15:11:21Z</time>
      </trkpt>
      <trkpt lat="46.84487" lon="-1.17154">
        <ele>70</ele>
        <time>2022-03-10T15:11:36Z</time>
      </trkpt>
      <trkpt lat="46.84454" lon="-1.17125">
        <ele>69</ele>
        <time>2022-03-10T15:12:27Z</time>
      </trkpt>
      <trkpt lat="46.84429" lon="-1.17092">
        <ele>68</ele>
        <time>2022-03-10T15:13:12Z</time>
      </trkpt>
      <trkpt lat="46.84398" lon="-1.17065">
        <ele>68</ele>
        <time>2022-03-10T15:14:00Z</time>
      </trkpt>
      <trkpt lat="46.84392" lon="-1.17073">
        <ele>67</ele>
        <time>2022-03-10T15:14:11Z</time>
      </trkpt>
      <trkpt lat="46.84383" lon="-1.17085">
        <ele>67</ele>
        <time>2022-03-10T15:14:28Z</time>
      </trkpt>
      <trkpt lat="46.8438" lon="-1.17096">
        <ele>67</ele>
        <time>2022-03-10T15:14:38Z</time>
      </trkpt>
      <trkpt lat="46.84374" lon="-1.17105">
        <ele>67</ele>
        <time>2022-03-10T15:14:50Z</time>
      </trkpt>
      <trkpt lat="46.84349" lon="-1.171">
        <ele>67</ele>
        <time>2022-03-10T15:15:24Z</time>
      </trkpt>
      <trkpt lat="46.84312" lon="-1.1712">
        <ele>68</ele>
        <time>2022-03-10T15:16:16Z</time>
      </trkpt>
      <trkpt lat="46.84303" lon="-1.17124">
        <ele>69</ele>
        <time>2022-03-10T15:16:29Z</time>
      </trkpt>
      <trkpt lat="46.84288" lon="-1.17144">
        <ele>69</ele>
        <time>2022-03-10T15:16:56Z</time>
      </trkpt>
      <trkpt lat="46.84278" lon="-1.17171">
        <ele>70</ele>
        <time>2022-03-10T15:17:24Z</time>
      </trkpt>
      <trkpt lat="46.84261" lon="-1.17196">
        <ele>73</ele>
        <time>2022-03-10T15:17:56Z</time>
      </trkpt>
      <trkpt lat="46.8425" lon="-1.17205">
        <ele>74</ele>
        <time>2022-03-10T15:18:13Z</time>
      </trkpt>
      <trkpt lat="46.84237" lon="-1.17224">
        <ele>74</ele>
        <time>2022-03-10T15:18:37Z</time>
      </trkpt>
      <trkpt lat="46.84222" lon="-1.17247">
        <ele>75</ele>
        <time>2022-03-10T15:19:06Z</time>
      </trkpt>
      <trkpt lat="46.84209" lon="-1.17281">
        <ele>77</ele>
        <time>2022-03-10T15:19:42Z</time>
      </trkpt>
      <trkpt lat="46.84212" lon="-1.17312">
        <ele>78</ele>
        <time>2022-03-10T15:20:11Z</time>
      </trkpt>
      <trkpt lat="46.84223" lon="-1.17352">
        <ele>80</ele>
        <time>2022-03-10T15:20:50Z</time>
      </trkpt>
      <trkpt lat="46.84262" lon="-1.17381">
        <ele>80</ele>
        <time>2022-03-10T15:21:48Z</time>
      </trkpt>
      <trkpt lat="46.84309" lon="-1.17416">
        <ele>78</ele>
        <time>2022-03-10T15:22:59Z</time>
      </trkpt>
      <trkpt lat="46.84332" lon="-1.17436">
        <ele>78</ele>
        <time>2022-03-10T15:23:34Z</time>
      </trkpt>
      <trkpt lat="46.84342" lon="-1.17448">
        <ele>77</ele>
        <time>2022-03-10T15:23:52Z</time>
      </trkpt>
      <trkpt lat="46.84417" lon="-1.17507">
        <ele>73</ele>
        <time>2022-03-10T15:25:45Z</time>
      </trkpt>
      <trkpt lat="46.84455" lon="-1.17536">
        <ele>71</ele>
        <time>2022-03-10T15:26:42Z</time>
      </trkpt>
      <trkpt lat="46.84481" lon="-1.1756">
        <ele>70</ele>
        <time>2022-03-10T15:27:24Z</time>
      </trkpt>
      <trkpt lat="46.84493" lon="-1.17579">
        <ele>69</ele>
        <time>2022-03-10T15:27:47Z</time>
      </trkpt>
      <trkpt lat="46.84514" lon="-1.17615">
        <ele>69</ele>
        <time>2022-03-10T15:28:30Z</time>
      </trkpt>
      <trkpt lat="46.84531" lon="-1.17652">
        <ele>69</ele>
        <time>2022-03-10T15:29:11Z</time>
      </trkpt>
      <trkpt lat="46.84544" lon="-1.17683">
        <ele>69</ele>
        <time>2022-03-10T15:29:44Z</time>
      </trkpt>
      <trkpt lat="46.8456" lon="-1.17709">
        <ele>69</ele>
        <time>2022-03-10T15:30:16Z</time>
      </trkpt>
      <trkpt lat="46.84582" lon="-1.17694">
        <ele>68</ele>
        <time>2022-03-10T15:30:48Z</time>
      </trkpt>
      <trkpt lat="46.846" lon="-1.17685">
        <ele>68</ele>
        <time>2022-03-10T15:31:14Z</time>
      </trkpt>
      <trkpt lat="46.84621" lon="-1.17678">
        <ele>69</ele>
        <time>2022-03-10T15:31:43Z</time>
      </trkpt>
      <trkpt lat="46.8465" lon="-1.17676">
        <ele>70</ele>
        <time>2022-03-10T15:32:21Z</time>
      </trkpt>
      <trkpt lat="46.84655" lon="-1.17697">
        <ele>70</ele>
        <time>2022-03-10T15:32:42Z</time>
      </trkpt>
      <trkpt lat="46.84665" lon="-1.17725">
        <ele>69</ele>
        <time>2022-03-10T15:33:10Z</time>
      </trkpt>
      <trkpt lat="46.84672" lon="-1.17742">
        <ele>68</ele>
        <time>2022-03-10T15:33:29Z</time>
      </trkpt>
      <trkpt lat="46.84679" lon="-1.17772">
        <ele>68</ele>
        <time>2022-03-10T15:33:58Z</time>
      </trkpt>
      <trkpt lat="46.84686" lon="-1.17803">
        <ele>68</ele>
        <time>2022-03-10T15:34:27Z</time>
      </trkpt>
      <trkpt lat="46.84708" lon="-1.17838">
        <ele>67</ele>
        <time>2022-03-10T15:35:11Z</time>
      </trkpt>
      <trkpt lat="46.84717" lon="-1.17866">
        <ele>67</ele>
        <time>2022-03-10T15:35:39Z</time>
      </trkpt>
      <trkpt lat="46.84735" lon="-1.17872">
        <ele>67</ele>
        <time>2022-03-10T15:36:04Z</time>
      </trkpt>
      <trkpt lat="46.84756" lon="-1.17862">
        <ele>67</ele>
        <time>2022-03-10T15:36:33Z</time>
      </trkpt>
      <trkpt lat="46.84769" lon="-1.17856">
        <ele>68</ele>
        <time>2022-03-10T15:36:51Z</time>
      </trkpt>
      <trkpt lat="46.84775" lon="-1.17847">
        <ele>68</ele>
        <time>2022-03-10T15:37:03Z</time>
      </trkpt>
      <trkpt lat="46.84803" lon="-1.17839">
        <ele>69</ele>
        <time>2022-03-10T15:37:41Z</time>
      </trkpt>
      <trkpt lat="46.84828" lon="-1.17875">
        <ele>69</ele>
        <time>2022-03-10T15:38:28Z</time>
      </trkpt>
      <trkpt lat="46.84853" lon="-1.17912">
        <ele>71</ele>
        <time>2022-03-10T15:39:15Z</time>
      </trkpt>
      <trkpt lat="46.84883" lon="-1.17937">
        <ele>73</ele>
        <time>2022-03-10T15:40:01Z</time>
      </trkpt>
      <trkpt lat="46.84914" lon="-1.17959">
        <ele>74</ele>
        <time>2022-03-10T15:40:47Z</time>
      </trkpt>
      <trkpt lat="46.84932" lon="-1.17976">
        <ele>75</ele>
        <time>2022-03-10T15:41:16Z</time>
      </trkpt>
      <trkpt lat="46.84923" lon="-1.18005">
        <ele>75</ele>
        <time>2022-03-10T15:41:45Z</time>
      </trkpt>
      <trkpt lat="46.84913" lon="-1.18041">
        <ele>75</ele>
        <time>2022-03-10T15:42:20Z</time>
      </trkpt>
      <trkpt lat="46.849" lon="-1.18064">
        <ele>74</ele>
        <time>2022-03-10T15:42:48Z</time>
      </trkpt>
      <trkpt lat="46.84889" lon="-1.18085">
        <ele>74</ele>
        <time>2022-03-10T15:43:12Z</time>
      </trkpt>
      <trkpt lat="46.84879" lon="-1.18118">
        <ele>73</ele>
        <time>2022-03-10T15:43:45Z</time>
      </trkpt>
      <trkpt lat="46.84871" lon="-1.18138">
        <ele>72</ele>
        <time>2022-03-10T15:44:06Z</time>
      </trkpt>
      <trkpt lat="46.84862" lon="-1.18158">
        <ele>71</ele>
        <time>2022-03-10T15:44:28Z</time>
      </trkpt>
      <trkpt lat="46.84854" lon="-1.18176">
        <ele>70</ele>
        <time>2022-03-10T15:44:47Z</time>
      </trkpt>
      <trkpt lat="46.84837" lon="-1.18195">
        <ele>68</ele>
        <time>2022-03-10T15:45:16Z</time>
      </trkpt>
      <trkpt lat="46.84818" lon="-1.18216">
        <ele>66</ele>
        <time>2022-03-10T15:45:48Z</time>
      </trkpt>
      <trkpt lat="46.848" lon="-1.18233">
        <ele>65</ele>
        <time>2022-03-10T15:46:16Z</time>
      </trkpt>
      <trkpt lat="46.84789" lon="-1.18241">
        <ele>64</ele>
        <time>2022-03-10T15:46:33Z</time>
      </trkpt>
      <trkpt lat="46.8476" lon="-1.18263">
        <ele>62</ele>
        <time>2022-03-10T15:47:16Z</time>
      </trkpt>
      <trkpt lat="46.84755" lon="-1.18305">
        <ele>62</ele>
        <time>2022-03-10T15:47:55Z</time>
      </trkpt>
      <trkpt lat="46.84745" lon="-1.1835">
        <ele>61</ele>
        <time>2022-03-10T15:48:38Z</time>
      </trkpt>
      <trkpt lat="46.84721" lon="-1.18406">
        <ele>62</ele>
        <time>2022-03-10T15:49:39Z</time>
      </trkpt>
      <trkpt lat="46.84693" lon="-1.18418">
        <ele>62</ele>
        <time>2022-03-10T15:50:17Z</time>
      </trkpt>
      <trkpt lat="46.84664" lon="-1.1841">
        <ele>62</ele>
        <time>2022-03-10T15:50:57Z</time>
      </trkpt>
      <trkpt lat="46.84639" lon="-1.18423">
        <ele>63</ele>
        <time>2022-03-10T15:51:32Z</time>
      </trkpt>
      <trkpt lat="46.84632" lon="-1.18431">
        <ele>63</ele>
        <time>2022-03-10T15:51:44Z</time>
      </trkpt>
      <trkpt lat="46.84606" lon="-1.18427">
        <ele>63</ele>
        <time>2022-03-10T15:52:19Z</time>
      </trkpt>
      <trkpt lat="46.84596" lon="-1.1849">
        <ele>63</ele>
        <time>2022-03-10T15:53:18Z</time>
      </trkpt>
      <trkpt lat="46.84588" lon="-1.18523">
        <ele>63</ele>
        <time>2022-03-10T15:53:50Z</time>
      </trkpt>
      <trkpt lat="46.8458" lon="-1.1856">
        <ele>62</ele>
        <time>2022-03-10T15:54:25Z</time>
      </trkpt>
      <trkpt lat="46.84577" lon="-1.1859">
        <ele>62</ele>
        <time>2022-03-10T15:54:53Z</time>
      </trkpt>
      <trkpt lat="46.84575" lon="-1.18616">
        <ele>63</ele>
        <time>2022-03-10T15:55:17Z</time>
      </trkpt>
      <trkpt lat="46.84575" lon="-1.1864">
        <ele>64</ele>
        <time>2022-03-10T15:55:39Z</time>
      </trkpt>
      <trkpt lat="46.84577" lon="-1.18658">
        <ele>65</ele>
        <time>2022-03-10T15:55:55Z</time>
      </trkpt>
      <trkpt lat="46.84554" lon="-1.18674">
        <ele>65</ele>
        <time>2022-03-10T15:56:29Z</time>
      </trkpt>
      <trkpt lat="46.8454" lon="-1.18686">
        <ele>65</ele>
        <time>2022-03-10T15:56:51Z</time>
      </trkpt>
      <trkpt lat="46.84513" lon="-1.18691">
        <ele>64</ele>
        <time>2022-03-10T15:57:27Z</time>
      </trkpt>
      <trkpt lat="46.84495" lon="-1.18701">
        <ele>63</ele>
        <time>2022-03-10T15:57:53Z</time>
      </trkpt>
      <trkpt lat="46.84474" lon="-1.18729">
        <ele>63</ele>
        <time>2022-03-10T15:58:31Z</time>
      </trkpt>
      <trkpt lat="46.84471" lon="-1.18741">
        <ele>63</ele>
        <time>2022-03-10T15:58:43Z</time>
      </trkpt>
      <trkpt lat="46.84465" lon="-1.18767">
        <ele>63</ele>
        <time>2022-03-10T15:59:08Z</time>
      </trkpt>
      <trkpt lat="46.84468" lon="-1.18794">
        <ele>64</ele>
        <time>2022-03-10T15:59:33Z</time>
      </trkpt>
      <trkpt lat="46.84471" lon="-1.18825">
        <ele>64</ele>
        <time>2022-03-10T16:00:01Z</time>
      </trkpt>
      <trkpt lat="46.84476" lon="-1.18845">
        <ele>64</ele>
        <time>2022-03-10T16:00:21Z</time>
      </trkpt>
      <trkpt lat="46.84479" lon="-1.18855">
        <ele>65</ele>
        <time>2022-03-10T16:00:31Z</time>
      </trkpt>
      <trkpt lat="46.84488" lon="-1.18887">
        <ele>66</ele>
        <time>2022-03-10T16:01:02Z</time>
      </trkpt>
      <trkpt lat="46.84496" lon="-1.18911">
        <ele>67</ele>
        <time>2022-03-10T16:01:27Z</time>
      </trkpt>
      <trkpt lat="46.84524" lon="-1.18948">
        <ele>67</ele>
        <time>2022-03-10T16:02:17Z</time>
      </trkpt>
      <trkpt lat="46.84538" lon="-1.18971">
        <ele>67</ele>
        <time>2022-03-10T16:02:45Z</time>
      </trkpt>
      <trkpt lat="46.84567" lon="-1.19">
        <ele>67</ele>
        <time>2022-03-10T16:03:32Z</time>
      </trkpt>
      <trkpt lat="46.84587" lon="-1.19016">
        <ele>67</ele>
        <time>2022-03-10T16:04:02Z</time>
      </trkpt>
      <trkpt lat="46.84602" lon="-1.19024">
        <ele>66</ele>
        <time>2022-03-10T16:04:24Z</time>
      </trkpt>
      <trkpt lat="46.84619" lon="-1.19039">
        <ele>65</ele>
        <time>2022-03-10T16:04:50Z</time>
      </trkpt>
      <trkpt lat="46.84638" lon="-1.1905">
        <ele>64</ele>
        <time>2022-03-10T16:05:18Z</time>
      </trkpt>
      <trkpt lat="46.84652" lon="-1.19062">
        <ele>64</ele>
        <time>2022-03-10T16:05:39Z</time>
      </trkpt>
      <trkpt lat="46.84653" lon="-1.1907">
        <ele>64</ele>
        <time>2022-03-10T16:05:47Z</time>
      </trkpt>
      <trkpt lat="46.84649" lon="-1.1908">
        <ele>64</ele>
        <time>2022-03-10T16:05:57Z</time>
      </trkpt>
      <trkpt lat="46.84647" lon="-1.19095">
        <ele>65</ele>
        <time>2022-03-10T16:06:11Z</time>
      </trkpt>
      <trkpt lat="46.84688" lon="-1.19171">
        <ele>65</ele>
        <time>2022-03-10T16:07:39Z</time>
      </trkpt>
      <trkpt lat="46.84716" lon="-1.19213">
        <ele>65</ele>
        <time>2022-03-10T16:08:33Z</time>
      </trkpt>
      <trkpt lat="46.84767" lon="-1.19304">
        <ele>66</ele>
        <time>2022-03-10T16:10:20Z</time>
      </trkpt>
      <trkpt lat="46.84776" lon="-1.19325">
        <ele>66</ele>
        <time>2022-03-10T16:10:43Z</time>
      </trkpt>
      <trkpt lat="46.84777" lon="-1.19342">
        <ele>67</ele>
        <time>2022-03-10T16:10:59Z</time>
      </trkpt>
      <trkpt lat="46.846" lon="-1.19504">
        <ele>70</ele>
        <time>2022-03-10T16:15:37Z</time>
      </trkpt>
      <trkpt lat="46.84562" lon="-1.19541">
        <ele>70</ele>
        <time>2022-03-10T16:16:38Z</time>
      </trkpt>
      <trkpt lat="46.8451" lon="-1.19604">
        <ele>71</ele>
        <time>2022-03-10T16:18:08Z</time>
      </trkpt>
      <trkpt lat="46.84468" lon="-1.19658">
        <ele>72</ele>
        <time>2022-03-10T16:19:23Z</time>
      </trkpt>
      <trkpt lat="46.84507" lon="-1.19752">
        <ele>71</ele>
        <time>2022-03-10T16:21:03Z</time>
      </trkpt>
      <trkpt lat="46.84544" lon="-1.19834">
        <ele>69</ele>
        <time>2022-03-10T16:22:33Z</time>
      </trkpt>
      <trkpt lat="46.84524" lon="-1.19887">
        <ele>69</ele>
        <time>2022-03-10T16:23:28Z</time>
      </trkpt>
      <trkpt lat="46.84489" lon="-1.19925">
        <ele>69</ele>
        <time>2022-03-10T16:24:26Z</time>
      </trkpt>
      <trkpt lat="46.8446" lon="-1.19979">
        <ele>67</ele>
        <time>2022-03-10T16:25:29Z</time>
      </trkpt>
      <trkpt lat="46.84437" lon="-1.19998">
        <ele>67</ele>
        <time>2022-03-10T16:26:04Z</time>
      </trkpt>
      <trkpt lat="46.84413" lon="-1.20025">
        <ele>68</ele>
        <time>2022-03-10T16:26:45Z</time>
      </trkpt>
      <trkpt lat="46.84399" lon="-1.20063">
        <ele>69</ele>
        <time>2022-03-10T16:27:24Z</time>
      </trkpt>
      <trkpt lat="46.84394" lon="-1.20086">
        <ele>69</ele>
        <time>2022-03-10T16:27:46Z</time>
      </trkpt>
      <trkpt lat="46.84388" lon="-1.20108">
        <ele>70</ele>
        <time>2022-03-10T16:28:08Z</time>
      </trkpt>
      <trkpt lat="46.84387" lon="-1.20149">
        <ele>70</ele>
        <time>2022-03-10T16:28:45Z</time>
      </trkpt>
      <trkpt lat="46.84373" lon="-1.20182">
        <ele>70</ele>
        <time>2022-03-10T16:29:21Z</time>
      </trkpt>
      <trkpt lat="46.84364" lon="-1.2021">
        <ele>70</ele>
        <time>2022-03-10T16:29:49Z</time>
      </trkpt>
      <trkpt lat="46.84356" lon="-1.20235">
        <ele>70</ele>
        <time>2022-03-10T16:30:14Z</time>
      </trkpt>
      <trkpt lat="46.84342" lon="-1.20254">
        <ele>71</ele>
        <time>2022-03-10T16:30:40Z</time>
      </trkpt>
      <trkpt lat="46.84294" lon="-1.2027">
        <ele>71</ele>
        <time>2022-03-10T16:31:45Z</time>
      </trkpt>
      <trkpt lat="46.84233" lon="-1.20295">
        <ele>72</ele>
        <time>2022-03-10T16:33:10Z</time>
      </trkpt>
      <trkpt lat="46.84195" lon="-1.20315">
        <ele>74</ele>
        <time>2022-03-10T16:34:04Z</time>
      </trkpt>
      <trkpt lat="46.84205" lon="-1.20368">
        <ele>74</ele>
        <time>2022-03-10T16:34:54Z</time>
      </trkpt>
      <trkpt lat="46.84205" lon="-1.20369">
        <ele>74</ele>
        <time>2022-03-10T16:34:55Z</time>
      </trkpt>
      <trkpt lat="46.84188" lon="-1.20376">
        <ele>74</ele>
        <time>2022-03-10T16:35:18Z</time>
      </trkpt>
      <trkpt lat="46.84163" lon="-1.20408">
        <ele>75</ele>
        <time>2022-03-10T16:36:03Z</time>
      </trkpt>
      <trkpt lat="46.84134" lon="-1.2043">
        <ele>77</ele>
        <time>2022-03-10T16:36:46Z</time>
      </trkpt>
      <trkpt lat="46.84093" lon="-1.20454">
        <ele>79</ele>
        <time>2022-03-10T16:37:45Z</time>
      </trkpt>
      <trkpt lat="46.84062" lon="-1.20469">
        <ele>80</ele>
        <time>2022-03-10T16:38:29Z</time>
      </trkpt>
      <trkpt lat="46.83978" lon="-1.20516">
        <ele>81</ele>
        <time>2022-03-10T16:40:29Z</time>
      </trkpt>
      <trkpt lat="46.83972" lon="-1.20525">
        <ele>81</ele>
        <time>2022-03-10T16:40:40Z</time>
      </trkpt>
      <trkpt lat="46.83961" lon="-1.20575">
        <ele>82</ele>
        <time>2022-03-10T16:41:28Z</time>
      </trkpt>
      <trkpt lat="46.83935" lon="-1.20646">
        <ele>81</ele>
        <time>2022-03-10T16:42:42Z</time>
      </trkpt>
      <trkpt lat="46.83873" lon="-1.20858">
        <ele>79</ele>
        <time>2022-03-10T16:46:12Z</time>
      </trkpt>
      <trkpt lat="46.83843" lon="-1.20961">
        <ele>78</ele>
        <time>2022-03-10T16:47:54Z</time>
      </trkpt>
      <trkpt lat="46.83809" lon="-1.21056">
        <ele>76</ele>
        <time>2022-03-10T16:49:32Z</time>
      </trkpt>
      <trkpt lat="46.83761" lon="-1.21244">
        <ele>77</ele>
        <time>2022-03-10T16:52:35Z</time>
      </trkpt>
      <trkpt lat="46.83711" lon="-1.21423">
        <ele>76</ele>
        <time>2022-03-10T16:55:32Z</time>
      </trkpt>
      <trkpt lat="46.83696" lon="-1.21492">
        <ele>76</ele>
        <time>2022-03-10T16:56:38Z</time>
      </trkpt>
      <trkpt lat="46.83692" lon="-1.21507">
        <ele>76</ele>
        <time>2022-03-10T16:56:53Z</time>
      </trkpt>
      <trkpt lat="46.83652" lon="-1.21508">
        <ele>77</ele>
        <time>2022-03-10T16:57:46Z</time>
      </trkpt>
      <trkpt lat="46.83461" lon="-1.21479">
        <ele>79</ele>
        <time>2022-03-10T17:02:02Z</time>
      </trkpt>
      <trkpt lat="46.83453" lon="-1.21467">
        <ele>79</ele>
        <time>2022-03-10T17:02:18Z</time>
      </trkpt>
      <trkpt lat="46.83448" lon="-1.21371">
        <ele>80</ele>
        <time>2022-03-10T17:03:46Z</time>
      </trkpt>
      <trkpt lat="46.83452" lon="-1.21107">
        <ele>81</ele>
        <time>2022-03-10T17:07:47Z</time>
      </trkpt>
      <trkpt lat="46.83451" lon="-1.21007">
        <ele>82</ele>
        <time>2022-03-10T17:09:18Z</time>
      </trkpt>
      <trkpt lat="46.83444" lon="-1.20945">
        <ele>82</ele>
        <time>2022-03-10T17:10:15Z</time>
      </trkpt>
      <trkpt lat="46.83429" lon="-1.20883">
        <ele>82</ele>
        <time>2022-03-10T17:11:15Z</time>
      </trkpt>
      <trkpt lat="46.83396" lon="-1.20811">
        <ele>83</ele>
        <time>2022-03-10T17:12:34Z</time>
      </trkpt>
      <trkpt lat="46.83371" lon="-1.20741">
        <ele>84</ele>
        <time>2022-03-10T17:13:47Z</time>
      </trkpt>
      <trkpt lat="46.83346" lon="-1.20655">
        <ele>85</ele>
        <time>2022-03-10T17:15:12Z</time>
      </trkpt>
      <trkpt lat="46.83336" lon="-1.20611">
        <ele>86</ele>
        <time>2022-03-10T17:15:54Z</time>
      </trkpt>
      <trkpt lat="46.83333" lon="-1.20542">
        <ele>86</ele>
        <time>2022-03-10T17:16:57Z</time>
      </trkpt>
      <trkpt lat="46.83332" lon="-1.20468">
        <ele>86</ele>
        <time>2022-03-10T17:18:05Z</time>
      </trkpt>
      <trkpt lat="46.83325" lon="-1.20423">
        <ele>86</ele>
        <time>2022-03-10T17:18:47Z</time>
      </trkpt>
      <trkpt lat="46.83311" lon="-1.20363">
        <ele>85</ele>
        <time>2022-03-10T17:19:45Z</time>
      </trkpt>
      <trkpt lat="46.83307" lon="-1.20342">
        <ele>85</ele>
        <time>2022-03-10T17:20:05Z</time>
      </trkpt>
      <trkpt lat="46.83297" lon="-1.20288">
        <ele>85</ele>
        <time>2022-03-10T17:20:56Z</time>
      </trkpt>
      <trkpt lat="46.83297" lon="-1.20232">
        <ele>84</ele>
        <time>2022-03-10T17:21:47Z</time>
      </trkpt>
      <trkpt lat="46.8329" lon="-1.20207">
        <ele>84</ele>
        <time>2022-03-10T17:22:12Z</time>
      </trkpt>
      <trkpt lat="46.83289" lon="-1.20185">
        <ele>83</ele>
        <time>2022-03-10T17:22:32Z</time>
      </trkpt>
      <trkpt lat="46.83284" lon="-1.20092">
        <ele>81</ele>
        <time>2022-03-10T17:23:57Z</time>
      </trkpt>
      <trkpt lat="46.8328" lon="-1.20042">
        <ele>80</ele>
        <time>2022-03-10T17:24:43Z</time>
      </trkpt>
      <trkpt lat="46.83281" lon="-1.19988">
        <ele>80</ele>
        <time>2022-03-10T17:25:32Z</time>
      </trkpt>
      <trkpt lat="46.83283" lon="-1.19938">
        <ele>79</ele>
        <time>2022-03-10T17:26:18Z</time>
      </trkpt>
      <trkpt lat="46.83281" lon="-1.19888">
        <ele>78</ele>
        <time>2022-03-10T17:27:04Z</time>
      </trkpt>
      <trkpt lat="46.83278" lon="-1.19839">
        <ele>77</ele>
        <time>2022-03-10T17:27:49Z</time>
      </trkpt>
      <trkpt lat="46.83261" lon="-1.19746">
        <ele>75</ele>
        <time>2022-03-10T17:29:16Z</time>
      </trkpt>
      <trkpt lat="46.83261" lon="-1.19697">
        <ele>73</ele>
        <time>2022-03-10T17:30:01Z</time>
      </trkpt>
      <trkpt lat="46.8327" lon="-1.19657">
        <ele>73</ele>
        <time>2022-03-10T17:30:40Z</time>
      </trkpt>
      <trkpt lat="46.83276" lon="-1.19625">
        <ele>73</ele>
        <time>2022-03-10T17:31:10Z</time>
      </trkpt>
      <trkpt lat="46.83296" lon="-1.19546">
        <ele>72</ele>
        <time>2022-03-10T17:32:27Z</time>
      </trkpt>
      <trkpt lat="46.83312" lon="-1.19475">
        <ele>72</ele>
        <time>2022-03-10T17:33:35Z</time>
      </trkpt>
      <trkpt lat="46.83318" lon="-1.19455">
        <ele>72</ele>
        <time>2022-03-10T17:33:55Z</time>
      </trkpt>
      <trkpt lat="46.8332" lon="-1.1944">
        <ele>72</ele>
        <time>2022-03-10T17:34:09Z</time>
      </trkpt>
      <trkpt lat="46.83316" lon="-1.19424">
        <ele>72</ele>
        <time>2022-03-10T17:34:25Z</time>
      </trkpt>
      <trkpt lat="46.83303" lon="-1.19394">
        <ele>73</ele>
        <time>2022-03-10T17:34:57Z</time>
      </trkpt>
      <trkpt lat="46.83284" lon="-1.19356">
        <ele>74</ele>
        <time>2022-03-10T17:35:40Z</time>
      </trkpt>
      <trkpt lat="46.83284" lon="-1.19356">
        <ele>74</ele>
        <time>2022-03-10T17:35:40Z</time>
      </trkpt>
      <trkpt lat="46.83283" lon="-1.19338">
        <ele>74</ele>
        <time>2022-03-10T17:35:56Z</time>
      </trkpt>
      <trkpt lat="46.83285" lon="-1.19327">
        <ele>74</ele>
        <time>2022-03-10T17:36:07Z</time>
      </trkpt>
      <trkpt lat="46.83277" lon="-1.19296">
        <ele>74</ele>
        <time>2022-03-10T17:36:37Z</time>
      </trkpt>
      <trkpt lat="46.83271" lon="-1.19284">
        <ele>74</ele>
        <time>2022-03-10T17:36:51Z</time>
      </trkpt>
      <trkpt lat="46.8327" lon="-1.19268">
        <ele>75</ele>
        <time>2022-03-10T17:37:05Z</time>
      </trkpt>
      <trkpt lat="46.83285" lon="-1.1926">
        <ele>75</ele>
        <time>2022-03-10T17:37:27Z</time>
      </trkpt>
      <trkpt lat="46.83326" lon="-1.19268">
        <ele>76</ele>
        <time>2022-03-10T17:38:22Z</time>
      </trkpt>
      <trkpt lat="46.83344" lon="-1.19263">
        <ele>77</ele>
        <time>2022-03-10T17:38:46Z</time>
      </trkpt>
      <trkpt lat="46.83345" lon="-1.19242">
        <ele>77</ele>
        <time>2022-03-10T17:39:05Z</time>
      </trkpt>
      <trkpt lat="46.83346" lon="-1.19201">
        <ele>78</ele>
        <time>2022-03-10T17:39:43Z</time>
      </trkpt>
      <trkpt lat="46.83369" lon="-1.19191">
        <ele>78</ele>
        <time>2022-03-10T17:40:15Z</time>
      </trkpt>
      <trkpt lat="46.83436" lon="-1.19201">
        <ele>78</ele>
        <time>2022-03-10T17:41:45Z</time>
      </trkpt>
      <trkpt lat="46.83436" lon="-1.19201">
        <ele>78</ele>
        <time>2022-03-10T17:41:45Z</time>
      </trkpt>
      <trkpt lat="46.83443" lon="-1.19194">
        <ele>78</ele>
        <time>2022-03-10T17:41:56Z</time>
      </trkpt>
      <trkpt lat="46.83449" lon="-1.19146">
        <ele>79</ele>
        <time>2022-03-10T17:42:41Z</time>
      </trkpt>
      <trkpt lat="46.83449" lon="-1.19146">
        <ele>79</ele>
        <time>2022-03-10T17:42:41Z</time>
      </trkpt>
      <trkpt lat="46.83463" lon="-1.19021">
        <ele>79</ele>
        <time>2022-03-10T17:44:37Z</time>
      </trkpt>
      <trkpt lat="46.83472" lon="-1.18933">
        <ele>78</ele>
        <time>2022-03-10T17:45:58Z</time>
      </trkpt>
      <trkpt lat="46.83476" lon="-1.18914">
        <ele>78</ele>
        <time>2022-03-10T17:46:16Z</time>
      </trkpt>
      <trkpt lat="46.83487" lon="-1.18832">
        <ele>74</ele>
        <time>2022-03-10T17:47:32Z</time>
      </trkpt>
      <trkpt lat="46.83494" lon="-1.18768">
        <ele>73</ele>
        <time>2022-03-10T17:48:31Z</time>
      </trkpt>
      <trkpt lat="46.83505" lon="-1.18746">
        <ele>72</ele>
        <time>2022-03-10T17:48:56Z</time>
      </trkpt>
      <trkpt lat="46.83516" lon="-1.18733">
        <ele>73</ele>
        <time>2022-03-10T17:49:15Z</time>
      </trkpt>
      <trkpt lat="46.8351" lon="-1.1872">
        <ele>73</ele>
        <time>2022-03-10T17:49:29Z</time>
      </trkpt>
      <trkpt lat="46.83504" lon="-1.18707">
        <ele>74</ele>
        <time>2022-03-10T17:49:44Z</time>
      </trkpt>
      <trkpt lat="46.83493" lon="-1.18691">
        <ele>75</ele>
        <time>2022-03-10T17:50:04Z</time>
      </trkpt>
      <trkpt lat="46.83467" lon="-1.18652">
        <ele>75</ele>
        <time>2022-03-10T17:50:54Z</time>
      </trkpt>
      <trkpt lat="46.83445" lon="-1.18612">
        <ele>76</ele>
        <time>2022-03-10T17:51:41Z</time>
      </trkpt>
      <trkpt lat="46.83328" lon="-1.1846">
        <ele>79</ele>
        <time>2022-03-10T17:55:10Z</time>
      </trkpt>
      <trkpt lat="46.83306" lon="-1.18443">
        <ele>78</ele>
        <time>2022-03-10T17:55:43Z</time>
      </trkpt>
      <trkpt lat="46.83298" lon="-1.18437">
        <ele>78</ele>
        <time>2022-03-10T17:55:55Z</time>
      </trkpt>
      <trkpt lat="46.83272" lon="-1.18352">
        <ele>79</ele>
        <time>2022-03-10T17:57:20Z</time>
      </trkpt>
      <trkpt lat="46.83266" lon="-1.1829">
        <ele>79</ele>
        <time>2022-03-10T17:58:17Z</time>
      </trkpt>
      <trkpt lat="46.83231" lon="-1.18202">
        <ele>80</ele>
        <time>2022-03-10T17:59:50Z</time>
      </trkpt>
      <trkpt lat="46.83257" lon="-1.18171">
        <ele>80</ele>
        <time>2022-03-10T18:00:35Z</time>
      </trkpt>
      <trkpt lat="46.8335" lon="-1.18105">
        <ele>81</ele>
        <time>2022-03-10T18:02:53Z</time>
      </trkpt>
      <trkpt lat="46.83368" lon="-1.18075">
        <ele>82</ele>
        <time>2022-03-10T18:03:29Z</time>
      </trkpt>
      <trkpt lat="46.83505" lon="-1.17756">
        <ele>85</ele>
        <time>2022-03-10T18:09:13Z</time>
      </trkpt>
      <trkpt lat="46.83574" lon="-1.17893">
        <ele>84</ele>
        <time>2022-03-10T18:11:49Z</time>
      </trkpt>
      <trkpt lat="46.83605" lon="-1.17945">
        <ele>83</ele>
        <time>2022-03-10T18:12:52Z</time>
      </trkpt>
      <trkpt lat="46.83666" lon="-1.18054">
        <ele>83</ele>
        <time>2022-03-10T18:15:00Z</time>
      </trkpt>
      <trkpt lat="46.83685" lon="-1.18092">
        <ele>82</ele>
        <time>2022-03-10T18:15:43Z</time>
      </trkpt>
      <trkpt lat="46.83688" lon="-1.18101">
        <ele>82</ele>
        <time>2022-03-10T18:15:52Z</time>
      </trkpt>
      <trkpt lat="46.83714" lon="-1.18195">
        <ele>80</ele>
        <time>2022-03-10T18:17:25Z</time>
      </trkpt>
      <trkpt lat="46.83725" lon="-1.18278">
        <ele>78</ele>
        <time>2022-03-10T18:18:42Z</time>
      </trkpt>
      <trkpt lat="46.83734" lon="-1.18364">
        <ele>76</ele>
        <time>2022-03-10T18:20:01Z</time>
      </trkpt>
      <trkpt lat="46.83753" lon="-1.1846">
        <ele>74</ele>
        <time>2022-03-10T18:21:33Z</time>
      </trkpt>
      <trkpt lat="46.83776" lon="-1.18557">
        <ele>73</ele>
        <time>2022-03-10T18:23:06Z</time>
      </trkpt>
      <trkpt lat="46.83783" lon="-1.18573">
        <ele>73</ele>
        <time>2022-03-10T18:23:24Z</time>
      </trkpt>
      <trkpt lat="46.83809" lon="-1.18621">
        <ele>73</ele>
        <time>2022-03-10T18:24:20Z</time>
      </trkpt>
      <trkpt lat="46.83842" lon="-1.18666">
        <ele>73</ele>
        <time>2022-03-10T18:25:20Z</time>
      </trkpt>
      <trkpt lat="46.83864" lon="-1.1871">
        <ele>73</ele>
        <time>2022-03-10T18:26:09Z</time>
      </trkpt>
      <trkpt lat="46.83907" lon="-1.18768">
        <ele>71</ele>
        <time>2022-03-10T18:27:28Z</time>
      </trkpt>
      <trkpt lat="46.83917" lon="-1.18769">
        <ele>71</ele>
        <time>2022-03-10T18:27:41Z</time>
      </trkpt>
      <trkpt lat="46.83944" lon="-1.18804">
        <ele>69</ele>
        <time>2022-03-10T18:28:29Z</time>
      </trkpt>
      <trkpt lat="46.83979" lon="-1.18833">
        <ele>67</ele>
        <time>2022-03-10T18:29:23Z</time>
      </trkpt>
      <trkpt lat="46.84006" lon="-1.18869">
        <ele>65</ele>
        <time>2022-03-10T18:30:12Z</time>
      </trkpt>
      <trkpt lat="46.84025" lon="-1.18884">
        <ele>64</ele>
        <time>2022-03-10T18:30:40Z</time>
      </trkpt>
      <trkpt lat="46.84095" lon="-1.18911">
        <ele>61</ele>
        <time>2022-03-10T18:32:17Z</time>
      </trkpt>
      <trkpt lat="46.84125" lon="-1.18922">
        <ele>61</ele>
        <time>2022-03-10T18:32:58Z</time>
      </trkpt>
      <trkpt lat="46.84143" lon="-1.18941">
        <ele>61</ele>
        <time>2022-03-10T18:33:28Z</time>
      </trkpt>
      <trkpt lat="46.84135" lon="-1.18981">
        <ele>62</ele>
        <time>2022-03-10T18:34:06Z</time>
      </trkpt>
      <trkpt lat="46.84098" lon="-1.19118">
        <ele>65</ele>
        <time>2022-03-10T18:36:20Z</time>
      </trkpt>
      <trkpt lat="46.84075" lon="-1.1922">
        <ele>67</ele>
        <time>2022-03-10T18:37:58Z</time>
      </trkpt>
      <trkpt lat="46.84063" lon="-1.19276">
        <ele>69</ele>
        <time>2022-03-10T18:38:52Z</time>
      </trkpt>
      <trkpt lat="46.84188" lon="-1.19301">
        <ele>70</ele>
        <time>2022-03-10T18:41:40Z</time>
      </trkpt>
      <trkpt lat="46.84259" lon="-1.19313">
        <ele>68</ele>
        <time>2022-03-10T18:43:16Z</time>
      </trkpt>
      <trkpt lat="46.84299" lon="-1.19333">
        <ele>68</ele>
        <time>2022-03-10T18:44:12Z</time>
      </trkpt>
      <trkpt lat="46.8434" lon="-1.19362">
        <ele>68</ele>
        <time>2022-03-10T18:45:13Z</time>
      </trkpt>
      <trkpt lat="46.84367" lon="-1.19387">
        <ele>69</ele>
        <time>2022-03-10T18:45:56Z</time>
      </trkpt>
      <trkpt lat="46.84395" lon="-1.19422">
        <ele>69</ele>
        <time>2022-03-10T18:46:45Z</time>
      </trkpt>
      <trkpt lat="46.84408" lon="-1.19454">
        <ele>70</ele>
        <time>2022-03-10T18:47:19Z</time>
      </trkpt>
      <trkpt lat="46.84423" lon="-1.19506">
        <ele>71</ele>
        <time>2022-03-10T18:48:10Z</time>
      </trkpt>
      <trkpt lat="46.84464" lon="-1.19643">
        <ele>72</ele>
        <time>2022-03-10T18:50:27Z</time>
      </trkpt>
      <trkpt lat="46.84489" lon="-1.19613">
        <ele>71</ele>
        <time>2022-03-10T18:51:10Z</time>
      </trkpt>
      <trkpt lat="46.84532" lon="-1.19561">
        <ele>71</ele>
        <time>2022-03-10T18:52:24Z</time>
      </trkpt>
      <trkpt lat="46.84574" lon="-1.19516">
        <ele>70</ele>
        <time>2022-03-10T18:53:34Z</time>
      </trkpt>
      <trkpt lat="46.84607" lon="-1.19491">
        <ele>70</ele>
        <time>2022-03-10T18:54:23Z</time>
      </trkpt>
      <trkpt lat="46.84767" lon="-1.19337">
        <ele>67</ele>
        <time>2022-03-10T18:58:39Z</time>
      </trkpt>
      <trkpt lat="46.84742" lon="-1.19279">
        <ele>67</ele>
        <time>2022-03-10T18:59:42Z</time>
      </trkpt>
      <trkpt lat="46.8467" lon="-1.1915">
        <ele>65</ele>
        <time>2022-03-10T19:02:14Z</time>
      </trkpt>
      <trkpt lat="46.84643" lon="-1.19095">
        <ele>65</ele>
        <time>2022-03-10T19:03:15Z</time>
      </trkpt>
      <trkpt lat="46.84641" lon="-1.19065">
        <ele>64</ele>
        <time>2022-03-10T19:03:43Z</time>
      </trkpt>
      <trkpt lat="46.84601" lon="-1.19031">
        <ele>66</ele>
        <time>2022-03-10T19:04:45Z</time>
      </trkpt>
      <trkpt lat="46.84564" lon="-1.19013">
        <ele>67</ele>
        <time>2022-03-10T19:05:37Z</time>
      </trkpt>
      <trkpt lat="46.8452" lon="-1.18967">
        <ele>68</ele>
        <time>2022-03-10T19:06:49Z</time>
      </trkpt>
      <trkpt lat="46.84474" lon="-1.18871">
        <ele>65</ele>
        <time>2022-03-10T19:08:36Z</time>
      </trkpt>
      <trkpt lat="46.84458" lon="-1.18811">
        <ele>64</ele>
        <time>2022-03-10T19:09:35Z</time>
      </trkpt>
      <trkpt lat="46.8446" lon="-1.1878">
        <ele>64</ele>
        <time>2022-03-10T19:10:03Z</time>
      </trkpt>
      <trkpt lat="46.84458" lon="-1.18751">
        <ele>63</ele>
        <time>2022-03-10T19:10:30Z</time>
      </trkpt>
      <trkpt lat="46.8448" lon="-1.1871">
        <ele>63</ele>
        <time>2022-03-10T19:11:17Z</time>
      </trkpt>
      <trkpt lat="46.84513" lon="-1.18675">
        <ele>64</ele>
        <time>2022-03-10T19:12:12Z</time>
      </trkpt>
      <trkpt lat="46.84522" lon="-1.18685">
        <ele>64</ele>
        <time>2022-03-10T19:12:27Z</time>
      </trkpt>
      <trkpt lat="46.84531" lon="-1.18682">
        <ele>64</ele>
        <time>2022-03-10T19:12:39Z</time>
      </trkpt>
      <trkpt lat="46.84563" lon="-1.18673">
        <ele>65</ele>
        <time>2022-03-10T19:13:22Z</time>
      </trkpt>
      <trkpt lat="46.84582" lon="-1.18668">
        <ele>65</ele>
        <time>2022-03-10T19:13:48Z</time>
      </trkpt>
      <trkpt lat="46.84578" lon="-1.18629">
        <ele>64</ele>
        <time>2022-03-10T19:14:24Z</time>
      </trkpt>
      <trkpt lat="46.84578" lon="-1.18601">
        <ele>63</ele>
        <time>2022-03-10T19:14:50Z</time>
      </trkpt>
      <trkpt lat="46.84581" lon="-1.18572">
        <ele>62</ele>
        <time>2022-03-10T19:15:17Z</time>
      </trkpt>
      <trkpt lat="46.84587" lon="-1.18544">
        <ele>63</ele>
        <time>2022-03-10T19:15:43Z</time>
      </trkpt>
      <trkpt lat="46.84596" lon="-1.18503">
        <ele>63</ele>
        <time>2022-03-10T19:16:23Z</time>
      </trkpt>
      <trkpt lat="46.846" lon="-1.18474">
        <ele>63</ele>
        <time>2022-03-10T19:16:50Z</time>
      </trkpt>
      <trkpt lat="46.846" lon="-1.18447">
        <ele>63</ele>
        <time>2022-03-10T19:17:14Z</time>
      </trkpt>
      <trkpt lat="46.84601" lon="-1.18436">
        <ele>63</ele>
        <time>2022-03-10T19:17:24Z</time>
      </trkpt>
      <trkpt lat="46.84613" lon="-1.1845">
        <ele>63</ele>
        <time>2022-03-10T19:17:45Z</time>
      </trkpt>
      <trkpt lat="46.84621" lon="-1.18467">
        <ele>63</ele>
        <time>2022-03-10T19:18:04Z</time>
      </trkpt>
      <trkpt lat="46.84628" lon="-1.18474">
        <ele>63</ele>
        <time>2022-03-10T19:18:15Z</time>
      </trkpt>
      <trkpt lat="46.84627" lon="-1.18496">
        <ele>63</ele>
        <time>2022-03-10T19:18:35Z</time>
      </trkpt>
      <trkpt lat="46.84625" lon="-1.18521">
        <ele>63</ele>
        <time>2022-03-10T19:18:58Z</time>
      </trkpt>
      <trkpt lat="46.84628" lon="-1.18547">
        <ele>63</ele>
        <time>2022-03-10T19:19:22Z</time>
      </trkpt>
      <trkpt lat="46.84626" lon="-1.18571">
        <ele>63</ele>
        <time>2022-03-10T19:19:44Z</time>
      </trkpt>
      <trkpt lat="46.84629" lon="-1.18593">
        <ele>64</ele>
        <time>2022-03-10T19:20:05Z</time>
      </trkpt>
      <trkpt lat="46.84628" lon="-1.18609">
        <ele>65</ele>
        <time>2022-03-10T19:20:19Z</time>
      </trkpt>
      <trkpt lat="46.84631" lon="-1.18621">
        <ele>65</ele>
        <time>2022-03-10T19:20:31Z</time>
      </trkpt>
      <trkpt lat="46.8464" lon="-1.18649">
        <ele>67</ele>
        <time>2022-03-10T19:20:59Z</time>
      </trkpt>
      <trkpt lat="46.84661" lon="-1.18685">
        <ele>69</ele>
        <time>2022-03-10T19:21:43Z</time>
      </trkpt>
      <trkpt lat="46.84674" lon="-1.18705">
        <ele>70</ele>
        <time>2022-03-10T19:22:08Z</time>
      </trkpt>
      <trkpt lat="46.84687" lon="-1.18728">
        <ele>70</ele>
        <time>2022-03-10T19:22:35Z</time>
      </trkpt>
      <trkpt lat="46.84704" lon="-1.18759">
        <ele>71</ele>
        <time>2022-03-10T19:23:11Z</time>
      </trkpt>
      <trkpt lat="46.84716" lon="-1.18768">
        <ele>71</ele>
        <time>2022-03-10T19:23:29Z</time>
      </trkpt>
      <trkpt lat="46.84733" lon="-1.18741">
        <ele>71</ele>
        <time>2022-03-10T19:24:03Z</time>
      </trkpt>
      <trkpt lat="46.84753" lon="-1.18713">
        <ele>70</ele>
        <time>2022-03-10T19:24:40Z</time>
      </trkpt>
      <trkpt lat="46.84771" lon="-1.18688">
        <ele>69</ele>
        <time>2022-03-10T19:25:13Z</time>
      </trkpt>
      <trkpt lat="46.84787" lon="-1.1866">
        <ele>68</ele>
        <time>2022-03-10T19:25:46Z</time>
      </trkpt>
      <trkpt lat="46.84805" lon="-1.18639">
        <ele>68</ele>
        <time>2022-03-10T19:26:17Z</time>
      </trkpt>
      <trkpt lat="46.84822" lon="-1.1861">
        <ele>67</ele>
        <time>2022-03-10T19:26:52Z</time>
      </trkpt>
      <trkpt lat="46.84836" lon="-1.18587">
        <ele>66</ele>
        <time>2022-03-10T19:27:20Z</time>
      </trkpt>
      <trkpt lat="46.84847" lon="-1.18562">
        <ele>67</ele>
        <time>2022-03-10T19:27:47Z</time>
      </trkpt>
      <trkpt lat="46.84856" lon="-1.18553">
        <ele>67</ele>
        <time>2022-03-10T19:28:01Z</time>
      </trkpt>
      <trkpt lat="46.84879" lon="-1.18545">
        <ele>68</ele>
        <time>2022-03-10T19:28:33Z</time>
      </trkpt>
      <trkpt lat="46.84904" lon="-1.18538">
        <ele>69</ele>
        <time>2022-03-10T19:29:07Z</time>
      </trkpt>
      <trkpt lat="46.84924" lon="-1.18528">
        <ele>70</ele>
        <time>2022-03-10T19:29:35Z</time>
      </trkpt>
      <trkpt lat="46.84945" lon="-1.18521">
        <ele>71</ele>
        <time>2022-03-10T19:30:04Z</time>
      </trkpt>
      <trkpt lat="46.84974" lon="-1.18509">
        <ele>73</ele>
        <time>2022-03-10T19:30:44Z</time>
      </trkpt>
      <trkpt lat="46.84999" lon="-1.18503">
        <ele>74</ele>
        <time>2022-03-10T19:31:18Z</time>
      </trkpt>
      <trkpt lat="46.8502" lon="-1.18494">
        <ele>74</ele>
        <time>2022-03-10T19:31:47Z</time>
      </trkpt>
      <trkpt lat="46.85034" lon="-1.18489">
        <ele>74</ele>
        <time>2022-03-10T19:32:06Z</time>
      </trkpt>
      <trkpt lat="46.85032" lon="-1.18469">
        <ele>74</ele>
        <time>2022-03-10T19:32:25Z</time>
      </trkpt>
      <trkpt lat="46.85033" lon="-1.18455">
        <ele>74</ele>
        <time>2022-03-10T19:32:38Z</time>
      </trkpt>
      <trkpt lat="46.85035" lon="-1.18441">
        <ele>74</ele>
        <time>2022-03-10T19:32:51Z</time>
      </trkpt>
      <trkpt lat="46.8504" lon="-1.18425">
        <ele>74</ele>
        <time>2022-03-10T19:33:07Z</time>
      </trkpt>
      <trkpt lat="46.85055" lon="-1.18418">
        <ele>74</ele>
        <time>2022-03-10T19:33:28Z</time>
      </trkpt>
      <trkpt lat="46.85082" lon="-1.1841">
        <ele>75</ele>
        <time>2022-03-10T19:34:05Z</time>
      </trkpt>
      <trkpt lat="46.85106" lon="-1.18402">
        <ele>76</ele>
        <time>2022-03-10T19:34:37Z</time>
      </trkpt>
      <trkpt lat="46.85133" lon="-1.18402">
        <ele>78</ele>
        <time>2022-03-10T19:35:13Z</time>
      </trkpt>
      <trkpt lat="46.85153" lon="-1.18421">
        <ele>78</ele>
        <time>2022-03-10T19:35:45Z</time>
      </trkpt>
      <trkpt lat="46.8516" lon="-1.18432">
        <ele>79</ele>
        <time>2022-03-10T19:35:59Z</time>
      </trkpt>
      <trkpt lat="46.8518" lon="-1.18413">
        <ele>79</ele>
        <time>2022-03-10T19:36:31Z</time>
      </trkpt>
      <trkpt lat="46.85189" lon="-1.18397">
        <ele>80</ele>
        <time>2022-03-10T19:36:50Z</time>
      </trkpt>
      <trkpt lat="46.85197" lon="-1.18385">
        <ele>81</ele>
        <time>2022-03-10T19:37:05Z</time>
      </trkpt>
      <trkpt lat="46.85208" lon="-1.18368">
        <ele>82</ele>
        <time>2022-03-10T19:37:26Z</time>
      </trkpt>
      <trkpt lat="46.85209" lon="-1.18351">
        <ele>82</ele>
        <time>2022-03-10T19:37:42Z</time>
      </trkpt>
      <trkpt lat="46.85217" lon="-1.1834">
        <ele>83</ele>
        <time>2022-03-10T19:37:57Z</time>
      </trkpt>
      <trkpt lat="46.85232" lon="-1.18328">
        <ele>84</ele>
        <time>2022-03-10T19:38:19Z</time>
      </trkpt>
      <trkpt lat="46.85253" lon="-1.18318">
        <ele>85</ele>
        <time>2022-03-10T19:38:49Z</time>
      </trkpt>
      <trkpt lat="46.85277" lon="-1.18303">
        <ele>85</ele>
        <time>2022-03-10T19:39:24Z</time>
      </trkpt>
      <trkpt lat="46.85284" lon="-1.1829">
        <ele>85</ele>
        <time>2022-03-10T19:39:39Z</time>
      </trkpt>
      <trkpt lat="46.85299" lon="-1.18289">
        <ele>85</ele>
        <time>2022-03-10T19:39:59Z</time>
      </trkpt>
      <trkpt lat="46.85302" lon="-1.18245">
        <ele>85</ele>
        <time>2022-03-10T19:40:39Z</time>
      </trkpt>
      <trkpt lat="46.85298" lon="-1.18222">
        <ele>85</ele>
        <time>2022-03-10T19:41:01Z</time>
      </trkpt>
      <trkpt lat="46.85284" lon="-1.1819">
        <ele>85</ele>
        <time>2022-03-10T19:41:36Z</time>
      </trkpt>
      <trkpt lat="46.85277" lon="-1.18174">
        <ele>85</ele>
        <time>2022-03-10T19:41:53Z</time>
      </trkpt>
      <trkpt lat="46.85254" lon="-1.1815">
        <ele>84</ele>
        <time>2022-03-10T19:42:31Z</time>
      </trkpt>
      <trkpt lat="46.85226" lon="-1.18163">
        <ele>84</ele>
        <time>2022-03-10T19:43:10Z</time>
      </trkpt>
      <trkpt lat="46.85201" lon="-1.18194">
        <ele>84</ele>
        <time>2022-03-10T19:43:53Z</time>
      </trkpt>
      <trkpt lat="46.8519" lon="-1.18192">
        <ele>84</ele>
        <time>2022-03-10T19:44:08Z</time>
      </trkpt>
      <trkpt lat="46.85176" lon="-1.18174">
        <ele>83</ele>
        <time>2022-03-10T19:44:33Z</time>
      </trkpt>
      <trkpt lat="46.85162" lon="-1.18163">
        <ele>82</ele>
        <time>2022-03-10T19:44:54Z</time>
      </trkpt>
      <trkpt lat="46.85153" lon="-1.18156">
        <ele>81</ele>
        <time>2022-03-10T19:45:08Z</time>
      </trkpt>
      <trkpt lat="46.85132" lon="-1.18143">
        <ele>81</ele>
        <time>2022-03-10T19:45:38Z</time>
      </trkpt>
      <trkpt lat="46.85134" lon="-1.18114">
        <ele>80</ele>
        <time>2022-03-10T19:46:05Z</time>
      </trkpt>
      <trkpt lat="46.85131" lon="-1.18106">
        <ele>80</ele>
        <time>2022-03-10T19:46:13Z</time>
      </trkpt>
      <trkpt lat="46.85125" lon="-1.1809">
        <ele>80</ele>
        <time>2022-03-10T19:46:30Z</time>
      </trkpt>
      <trkpt lat="46.85135" lon="-1.18055">
        <ele>80</ele>
        <time>2022-03-10T19:47:05Z</time>
      </trkpt>
      <trkpt lat="46.85131" lon="-1.18042">
        <ele>80</ele>
        <time>2022-03-10T19:47:18Z</time>
      </trkpt>
      <trkpt lat="46.85125" lon="-1.18034">
        <ele>80</ele>
        <time>2022-03-10T19:47:28Z</time>
      </trkpt>
      <trkpt lat="46.85119" lon="-1.18016">
        <ele>79</ele>
        <time>2022-03-10T19:47:47Z</time>
      </trkpt>
      <trkpt lat="46.85119" lon="-1.17993">
        <ele>79</ele>
        <time>2022-03-10T19:48:08Z</time>
      </trkpt>
      <trkpt lat="46.85119" lon="-1.17966">
        <ele>80</ele>
        <time>2022-03-10T19:48:32Z</time>
      </trkpt>
      <trkpt lat="46.85133" lon="-1.17949">
        <ele>80</ele>
        <time>2022-03-10T19:48:57Z</time>
      </trkpt>
      <trkpt lat="46.85138" lon="-1.17925">
        <ele>80</ele>
        <time>2022-03-10T19:49:20Z</time>
      </trkpt>
      <trkpt lat="46.85143" lon="-1.179">
        <ele>80</ele>
        <time>2022-03-10T19:49:43Z</time>
      </trkpt>
      <trkpt lat="46.85146" lon="-1.17879">
        <ele>80</ele>
        <time>2022-03-10T19:50:03Z</time>
      </trkpt>
      <trkpt lat="46.85152" lon="-1.17861">
        <ele>81</ele>
        <time>2022-03-10T19:50:21Z</time>
      </trkpt>
      <trkpt lat="46.85153" lon="-1.17846">
        <ele>81</ele>
        <time>2022-03-10T19:50:35Z</time>
      </trkpt>
      <trkpt lat="46.85155" lon="-1.17835">
        <ele>81</ele>
        <time>2022-03-10T19:50:45Z</time>
      </trkpt>
      <trkpt lat="46.8515" lon="-1.17819">
        <ele>80</ele>
        <time>2022-03-10T19:51:01Z</time>
      </trkpt>
      <trkpt lat="46.85147" lon="-1.17809">
        <ele>80</ele>
        <time>2022-03-10T19:51:11Z</time>
      </trkpt>
      <trkpt lat="46.85147" lon="-1.17799">
        <ele>80</ele>
        <time>2022-03-10T19:51:20Z</time>
      </trkpt>
      <trkpt lat="46.85142" lon="-1.17782">
        <ele>80</ele>
        <time>2022-03-10T19:51:37Z</time>
      </trkpt>
      <trkpt lat="46.85131" lon="-1.1778">
        <ele>79</ele>
        <time>2022-03-10T19:51:52Z</time>
      </trkpt>
      <trkpt lat="46.85119" lon="-1.17777">
        <ele>79</ele>
        <time>2022-03-10T19:52:08Z</time>
      </trkpt>
      <trkpt lat="46.85114" lon="-1.17772">
        <ele>79</ele>
        <time>2022-03-10T19:52:16Z</time>
      </trkpt>
      <trkpt lat="46.85112" lon="-1.17754">
        <ele>78</ele>
        <time>2022-03-10T19:52:33Z</time>
      </trkpt>
    </trkseg>
  </trk>
</gpx>